world map with KAD marked

KAD - Airport

This information may not be accurate or current and is not valid for navigation or flight planning. No warranty of fitness for any purpose is made or implied.

flag of Nigeria

Donate via PayPal

Additional information is available on the NEW Great Circle Mapper

Location
City:  Kaduna, Kaduna, Nigeria
Name:Kaduna Airport
ICAO / IATA:DNKA / KAD

Details
Type:Airport (Aerodrome, Airfield)
Use:Public/Civil, Military
Latitude:10°41'46"N (10.696025)
Longitude:7°19'12"E (7.320114)
Datum:WGS 1984
Elevation:2073 ft (632 m)
Runways:1
Longest:9843 × 197 ft (3000 × 60 m)

Time
Timezone:UTC+1 (DST+3)
Local Time:

Weather
METAR:DNKA  (expired)
TAF:DNKA  040930Z 0412/0518 07008KT CAVOK BECMG 0412/0414 18010KT

Related Locations
Nearby:
Farthest:AAU: 12237 mi / 19693 km
Asau, WS

Find:

   beyond  
but within

Other Information
Maps:
Sources:

  


 


Great Circle Mapper   Great Circle Mapper
Great Circle Mapper FAQ   Great Circle Mapper FAQ
  Karl's Home Page
KLSē   KLSē Home
   GC on Facebook
Airlines of the World   Airlines of the World
Donate via PayPal


Copyright © 2004-2019, Karl L. Swartz. All rights reserved.
All trademarks mentioned herein belong to their respective owners.

Please see credits for attribution and copyright information.

Karl Swartz <karl@kls2.com>
  Powered by FreeBSD
Valid HTML 4.01!
Labeled with ICRA
hCard Microformat
Geo Microformat